createdAt,value
2022-10-28T00:03:51.454Z,8.30
2022-10-28T00:08:49.619Z,8.40
2022-10-28T00:13:47.662Z,8.40
2022-10-28T00:18:45.762Z,8.40
2022-10-28T00:23:43.350Z,8.30
2022-10-28T00:28:49.222Z,8.20
2022-10-28T00:33:47.014Z,8.20
2022-10-28T00:38:46.163Z,8.10
2022-10-28T00:44:11.455Z,8.10
2022-10-28T00:49:23.082Z,8.20
2022-10-28T00:54:21.749Z,8.40
2022-10-28T00:59:28.137Z,8.40
2022-10-28T01:04:26.197Z,8.40
2022-10-28T01:14:52.014Z,8.60
2022-10-28T01:20:17.422Z,8.70
2022-10-28T01:25:49.498Z,8.70
2022-10-28T01:31:14.132Z,8.60
2022-10-28T01:36:27.728Z,8.70
2022-10-28T01:41:49.127Z,8.70
2022-10-28T01:46:58.145Z,8.60
2022-10-28T01:52:00.569Z,8.60
2022-10-28T01:57:00.124Z,8.50
2022-10-28T02:01:58.140Z,8.60
2022-10-28T02:06:59.850Z,8.60
2022-10-28T02:12:20.794Z,8.70
2022-10-28T02:17:37.664Z,8.60
2022-10-28T02:22:57.034Z,8.60
2022-10-28T02:28:00.350Z,8.40
2022-10-28T02:33:02.065Z,8.30
2022-10-28T02:38:01.960Z,8.20
2022-10-28T02:43:05.069Z,8.20
2022-10-28T02:48:13.402Z,8.20
2022-10-28T02:53:22.013Z,8.40
2022-10-28T02:58:19.336Z,8.40
2022-10-28T03:03:16.650Z,8.40
2022-10-28T03:08:13.930Z,8.50
2022-10-28T03:13:11.250Z,8.50
2022-10-28T03:18:09.100Z,8.40
2022-10-28T03:23:06.336Z,8.50
2022-10-28T03:28:03.566Z,8.40
2022-10-28T03:33:00.789Z,8.50
2022-10-28T03:37:58.649Z,8.40
2022-10-28T03:42:56.379Z,8.30
2022-10-28T03:47:55.766Z,8.30
2022-10-28T03:52:53.789Z,8.20
2022-10-28T03:57:52.938Z,8.00
2022-10-28T04:02:55.045Z,8.10
2022-10-28T04:07:56.840Z,8.30
2022-10-28T04:13:02.078Z,8.30
2022-10-28T04:17:59.747Z,8.30
2022-10-28T04:23:00.076Z,8.40
2022-10-28T04:27:59.465Z,8.30
2022-10-28T04:32:56.761Z,8.40
2022-10-28T04:37:54.365Z,8.40
2022-10-28T04:42:52.297Z,8.50
2022-10-28T04:47:49.959Z,8.50
2022-10-28T04:52:47.175Z,8.50
2022-10-28T04:57:44.390Z,8.40
2022-10-28T05:02:45.970Z,8.50
2022-10-28T05:07:43.884Z,8.40
2022-10-28T05:12:44.812Z,8.40
2022-10-28T05:17:44.979Z,8.30
2022-10-28T05:22:45.684Z,8.20
2022-10-28T05:27:43.204Z,8.30
2022-10-28T05:32:40.930Z,8.30
2022-10-28T05:37:38.289Z,8.30
2022-10-28T05:42:41.966Z,8.30
2022-10-28T05:47:47.496Z,8.20
2022-10-28T05:52:56.279Z,8.20
2022-10-28T05:57:55.548Z,8.00
2022-10-28T06:03:01.391Z,8.10
2022-10-28T06:07:58.805Z,8.00
2022-10-28T06:12:55.499Z,8.10
2022-10-28T06:17:52.719Z,8.50
2022-10-28T06:22:52.156Z,8.60
2022-10-28T06:27:57.109Z,8.70
2022-10-28T06:32:57.597Z,8.60
2022-10-28T06:37:56.008Z,8.80
2022-10-28T06:43:03.468Z,9.20
2022-10-28T06:48:04.752Z,9.10
2022-10-28T06:53:02.501Z,9.20
2022-10-28T06:58:01.372Z,9.30
2022-10-28T07:02:59.023Z,9.50
2022-10-28T07:07:56.822Z,9.60
2022-10-28T07:12:54.601Z,9.80
2022-10-28T07:17:55.902Z,9.80
2022-10-28T07:23:00.838Z,9.80
2022-10-28T07:28:01.641Z,10.00
2022-10-28T07:33:01.274Z,9.90
2022-10-28T07:37:59.210Z,10.10
2022-10-28T07:42:56.796Z,9.90
2022-10-28T07:47:54.352Z,10.00
2022-10-28T07:52:51.797Z,10.20
2022-10-28T07:57:50.568Z,10.20
2022-10-28T08:02:48.038Z,10.60
2022-10-28T08:07:47.023Z,10.70
2022-10-28T08:12:46.440Z,10.70
2022-10-28T08:17:43.791Z,11.30
2022-10-28T08:22:40.967Z,11.50
2022-10-28T08:27:38.213Z,11.80
2022-10-28T08:32:36.089Z,13.10
2022-10-28T08:37:33.368Z,17.30
2022-10-28T08:42:44.615Z,18.50
2022-10-28T08:47:41.819Z,19.10
2022-10-28T08:52:50.947Z,19.60
2022-10-28T08:58:16.849Z,19.90
2022-10-28T09:03:22.643Z,20.20
2022-10-28T09:08:23.993Z,20.30
2022-10-28T09:13:41.028Z,20.20
2022-10-28T09:18:49.504Z,20.20
2022-10-28T09:23:58.222Z,20.00
2022-10-28T09:29:14.042Z,20.60
2022-10-28T09:34:18.900Z,20.50
2022-10-28T09:39:28.602Z,20.00
2022-10-28T09:44:48.616Z,20.20
2022-10-28T09:49:48.529Z,19.40
2022-10-28T09:54:53.172Z,19.10
2022-10-28T09:59:51.229Z,18.60
2022-10-28T10:04:48.509Z,18.50
2022-10-28T10:09:46.359Z,19.10
2022-10-28T10:14:50.754Z,19.00
2022-10-28T10:20:07.119Z,18.40
2022-10-28T10:25:26.111Z,16.90
2022-10-28T10:30:38.924Z,16.30
2022-10-28T10:35:37.837Z,16.30
2022-10-28T10:40:40.075Z,16.00
2022-10-28T10:45:37.531Z,15.80
2022-10-28T10:50:37.972Z,15.70
2022-10-28T10:55:41.158Z,15.80
2022-10-28T11:00:45.217Z,15.70
2022-10-28T11:06:22.679Z,15.80
2022-10-28T11:11:23.241Z,15.60
2022-10-28T11:16:23.860Z,15.60
2022-10-28T11:21:43.337Z,15.70
2022-10-28T11:27:04.724Z,15.80
2022-10-28T11:32:14.307Z,15.70
2022-10-28T11:37:39.117Z,15.60
2022-10-28T11:43:11.656Z,15.60
2022-10-28T11:48:20.212Z,15.70
2022-10-28T11:53:37.547Z,16.00
2022-10-28T13:56:29.381Z,16.40
2022-10-28T14:01:41.613Z,16.40
2022-10-28T14:06:39.333Z,16.50
2022-10-28T14:11:40.577Z,16.50
2022-10-28T14:16:40.287Z,16.50
2022-10-28T14:22:03.532Z,16.50
2022-10-28T14:27:08.473Z,16.50
2022-10-28T14:32:31.928Z,16.50
2022-10-28T14:38:03.968Z,16.40
2022-10-28T14:43:31.763Z,16.40
2022-10-28T14:48:47.272Z,16.40
2022-10-28T14:53:46.512Z,16.30
2022-10-28T14:58:45.489Z,16.30
2022-10-28T15:03:52.304Z,16.30
2022-10-28T15:08:49.845Z,16.10
2022-10-28T15:13:54.029Z,16.00
2022-10-28T15:18:53.816Z,15.80
2022-10-28T15:24:07.114Z,15.60
2022-10-28T15:29:04.452Z,15.50
2022-10-28T15:34:02.203Z,15.20
2022-10-28T15:38:59.418Z,14.90
2022-10-28T15:43:59.690Z,14.60
2022-10-28T15:49:00.369Z,14.40
2022-10-28T15:59:33.514Z,14.00
2022-10-28T16:04:42.271Z,13.80
2022-10-28T16:09:47.149Z,13.70
2022-10-28T16:14:47.122Z,13.60
2022-10-28T16:19:53.045Z,13.40
2022-10-28T16:24:51.252Z,13.30
2022-10-28T16:29:49.025Z,13.10
2022-10-28T16:34:46.289Z,12.90
2022-10-28T16:39:43.565Z,12.90
2022-10-28T16:44:40.895Z,12.80
2022-10-28T16:49:38.258Z,12.70
2022-10-28T16:54:42.281Z,12.60
2022-10-28T16:59:40.021Z,12.50
2022-10-28T17:04:37.343Z,12.40
2022-10-28T17:09:35.046Z,12.30
2022-10-28T17:14:32.469Z,12.30
2022-10-28T17:19:29.825Z,12.20
2022-10-28T17:24:27.935Z,12.10
2022-10-28T17:29:25.473Z,12.00
2022-10-28T17:34:22.805Z,11.90
2022-10-28T17:39:25.680Z,11.80
2022-10-28T17:44:23.699Z,11.80
2022-10-28T17:49:20.977Z,11.70
2022-10-28T17:54:18.335Z,11.50
2022-10-28T17:59:15.611Z,11.50
2022-10-28T18:04:12.837Z,11.50
2022-10-28T18:09:12.251Z,11.40
2022-10-28T18:14:09.510Z,11.30
2022-10-28T18:19:07.845Z,11.30
2022-10-28T18:24:05.680Z,11.20
2022-10-28T18:29:04.246Z,11.10
2022-10-28T18:34:02.371Z,11.00
2022-10-28T18:39:00.001Z,11.00
2022-10-28T18:44:02.337Z,11.10
2022-10-28T18:53:57.029Z,11.00
2022-10-28T18:58:55.537Z,11.00
2022-10-28T19:03:55.269Z,10.90
2022-10-28T19:08:54.845Z,10.80
2022-10-28T19:13:52.432Z,10.70
2022-10-28T19:18:49.984Z,10.60
2022-10-28T19:23:47.272Z,10.60
2022-10-28T19:28:47.059Z,10.50
2022-10-28T19:33:45.444Z,10.40
2022-10-28T19:38:42.822Z,10.30
2022-10-28T19:43:40.533Z,10.30
2022-10-28T19:48:39.245Z,10.40
2022-10-28T19:53:36.554Z,10.40
2022-10-28T19:58:33.822Z,10.30
2022-10-28T20:03:34.508Z,10.20
2022-10-28T20:08:37.342Z,10.20
2022-10-28T20:13:35.965Z,10.00
2022-10-28T20:18:34.544Z,10.10
2022-10-28T20:23:32.580Z,9.90
2022-10-28T20:28:30.164Z,9.90
2022-10-28T20:33:28.510Z,9.80
2022-10-28T20:38:26.401Z,9.80
2022-10-28T20:43:29.398Z,9.70
2022-10-28T20:48:28.680Z,9.70
2022-10-28T20:53:27.798Z,9.70
2022-10-28T20:58:28.318Z,9.70
2022-10-28T21:03:25.854Z,9.60
2022-10-28T21:08:23.174Z,9.60
2022-10-28T21:13:20.539Z,9.60
2022-10-28T21:18:17.841Z,9.60
2022-10-28T21:23:15.188Z,9.60
2022-10-28T21:28:12.448Z,9.60
2022-10-28T21:33:11.426Z,9.50
2022-10-28T21:38:24.060Z,9.40
2022-10-28T21:43:21.262Z,9.40
2022-10-28T21:48:18.576Z,9.40
2022-10-28T21:53:15.841Z,9.30
2022-10-28T21:58:14.279Z,9.30
2022-10-28T22:03:13.131Z,9.30
2022-10-28T22:08:10.633Z,9.30
2022-10-28T22:13:07.933Z,9.20
2022-10-28T22:18:05.301Z,9.00
2022-10-28T22:23:02.489Z,8.90
2022-10-28T22:27:59.673Z,8.90
2022-10-28T22:32:57.042Z,8.80
2022-10-28T22:37:54.766Z,8.90
2022-10-28T22:42:52.207Z,8.90
2022-10-28T22:47:51.319Z,9.10
2022-10-28T22:52:49.098Z,9.00
2022-10-28T22:57:46.273Z,8.90
2022-10-28T23:02:43.515Z,8.80
2022-10-28T23:07:50.374Z,8.80
2022-10-28T23:12:47.800Z,8.60
2022-10-28T23:17:49.576Z,8.50
2022-10-28T23:22:46.888Z,8.60
2022-10-28T23:27:44.897Z,8.50
2022-10-28T23:32:42.121Z,8.50
2022-10-28T23:37:39.372Z,8.50
2022-10-28T23:42:36.763Z,8.50
2022-10-28T23:47:34.369Z,8.40
2022-10-28T23:52:32.070Z,8.50
2022-10-28T23:57:29.335Z,8.60
